Main page
METAR-TAF:

METAR-TAF

Airports :

Peterborough Airport

Peterborough, Ontario, Canada

latitude: 44-14N, longitude: 078-22W, elevation: 191 m

Current weather observation

The report was made 20 hours and 29 minutes ago, at 21:00 UTC
Wind 9 kt from the North/Northwest with gusts up to 15 kt
Temperature 27°C
Humidity 39%
Pressure 1011 hPa
Visibility: 14.5 km
Few clouds at a height of 7600 ft

METAR: CYPQ 242100Z AUTO 33009G15KT 9SM FEW076 27/12 A2986 RMK SLP112 DENSITY ALT 2300FT

Time: 13:29 (17:29 UTC)

Forecast

The report was made 21 hours and 49 minutes ago, at 19:40 UTC
Forecast valid from 24 at 20 UTC to 25 at 02 UTC
Wind 10 kt from the North/Northwest with gusts up to 20 kt
Visibility: 10 km
Scattered clouds at a height of 7000 ft
Becoming
from 24 at 23 UTC to 25 at 01 UTC
Wind 6 kt from the West/Northwest

TAF: CYPQ 241940Z 2420/2502 34010G20KT P6SM SCT070 BECMG 2423/2501 30006KT RMK FCST BASED ON AUTO OBS. NXT FCST BY 251000Z

Weather observations and forecasts of more than 4000 airports (METAR and TAF reports).

The available stations are represented by yellow and red dots on the map.

Hover mouse over dot to see the name of the station.

Then click to see weather observations and forecasts.

To change the map : click on the green buttons with a black cross to zoom in, on the green button with a dash to zoom out, or on the green arrows for adjacent maps.


METAR-TAF: